sensor_id;sensor_type;location;lat;lon;timestamp;pressure;altitude;pressure_sealevel;temperature;humidity
61740;BME280;47645;45.288;12.038;2023-09-12T00:01:19;1013.2424620368511;;;21.059375;75.74533662689205
61740;BME280;47645;45.288;12.038;2023-09-12T00:11:21;1013.2235956322821;;;20.4017578125;85.81772630925308
61740;BME280;47645;45.288;12.038;2023-09-12T00:21:22;1013.1590112693;;;20.141796875;86.79331191674986
61740;BME280;47645;45.288;12.038;2023-09-12T00:31:23;1013.2212651794282;;;20.034765625;85.95125739601556
61740;BME280;47645;45.288;12.038;2023-09-12T00:41:25;1013.170178183967;;;20.0755859375;95.46069910321974
61740;BME280;47645;45.288;12.038;2023-09-12T00:51:27;1013.10392648177;;;19.85625;88.26782663381005
61740;BME280;47645;45.288;12.038;2023-09-12T01:01:27;1013.1316858374371;;;20.01953125;86.51447616657286
61740;BME280;47645;45.288;12.038;2023-09-12T01:11:29;1013.1082028203587;;;19.94296875;88.49267753468416
61740;BME280;47645;45.288;12.038;2023-09-12T01:21:41;1013.0994660801922;;;19.84609375;86.48659045287641
61740;BME280;47645;45.288;12.038;2023-09-12T01:31:32;1013.0009523138667;;;19.96328125;83.01140731088374
61740;BME280;47645;45.288;12.038;2023-09-12T01:41:36;1013.0874305328633;;;19.8919921875;89.44690280433613
61740;BME280;47645;45.288;12.038;2023-09-12T01:51:34;1013.09677810609;;;19.84609375;86.32555758824385
61740;BME280;47645;45.288;12.038;2023-09-12T02:01:35;1013.1118786056791;;;19.84609375;83.57701431293187
61740;BME280;47645;45.288;12.038;2023-09-12T02:11:36;1013.154099883842;;;19.70859375;83.9148235525766
61740;BME280;47645;45.288;12.038;2023-09-12T02:21:38;1013.1558473137206;;;19.703515625;84.33202089040373
61740;BME280;47645;45.288;12.038;2023-09-12T02:31:39;1013.1628917633985;;;19.7849609375;83.39135709993204
61740;BME280;47645;45.288;12.038;2023-09-12T02:41:40;1013.1309125584485;;;19.4740234375;85.70605000657211
61740;BME280;47645;45.288;12.038;2023-09-12T02:51:42;1013.1389422807938;;;19.5658203125;84.55115867892754
61740;BME280;47645;45.288;12.038;2023-09-12T03:01:43;1013.1255959628767;;;19.39765625;85.52964390225794
61740;BME280;47645;45.288;12.038;2023-09-12T03:11:44;1013.1010289674647;;;19.2447265625;97.11335686791199
61740;BME280;47645;45.288;12.038;2023-09-12T03:21:45;1013.1413916126614;;;19.295703125;93.84178835056694
61740;BME280;47645;45.288;12.038;2023-09-12T03:31:47;1013.1242460381159;;;19.1630859375;89.84510677914837
61740;BME280;47645;45.288;12.038;2023-09-12T03:41:48;1013.106228713986;;;19.0408203125;100
61740;BME280;47645;45.288;12.038;2023-09-12T03:51:49;1013.0169723818758;;;18.9185546875;100
61740;BME280;47645;45.288;12.038;2023-09-12T04:01:50;1013.0612977700297;;;19.081640625;91.33089306052793
61740;BME280;47645;45.288;12.038;2023-09-12T04:11:51;1013.0130478769025;;;18.9439453125;98.32539766630931
61740;BME280;47645;45.288;12.038;2023-09-12T04:21:53;1013.1062040763422;;;18.9796875;100
61740;BME280;47645;45.288;12.038;2023-09-12T04:32:00;1013.2550882675334;;;18.898046875;100
61740;BME280;47645;45.288;12.038;2023-09-12T04:41:55;1013.2748431460756;;;18.6431640625;100
61740;BME280;47645;45.288;12.038;2023-09-12T04:51:57;1013.3123980762601;;;18.8267578125;100
61740;BME280;47645;45.288;12.038;2023-09-12T05:01:58;1013.3438490138292;;;18.8470703125;92.74089716063311
61740;BME280;47645;45.288;12.038;2023-09-12T05:11:59;1013.4229435125675;;;19.2599609375;95.48340907538118
61740;BME280;47645;45.288;12.038;2023-09-12T05:22:00;1013.4259317808342;;;19.2140625;100
61740;BME280;47645;45.288;12.038;2023-09-12T05:32:02;1013.5354448516421;;;19.4537109375;100
61740;BME280;47645;45.288;12.038;2023-09-12T05:42:03;1013.5990995996735;;;19.7849609375;100
61740;BME280;47645;45.288;12.038;2023-09-12T05:52:04;1013.6245180142457;;;20.2080078125;100
61740;BME280;47645;45.288;12.038;2023-09-12T06:02:07;1013.6986737311375;;;20.4578125;100
61740;BME280;47645;45.288;12.038;2023-09-12T06:12:07;1013.6740507135719;;;20.783984375;99.77440870983587
61740;BME280;47645;45.288;12.038;2023-09-12T06:22:07;1013.8245733433387;;;21.084765625;97.28548250728244
61740;BME280;47645;45.288;12.038;2023-09-12T06:32:09;1013.8629093779979;;;21.40078125;95.28605214632867
61740;BME280;47645;45.288;12.038;2023-09-12T06:42:10;1013.9730064850701;;;21.8748046875;92.53646997537612
61740;BME280;47645;45.288;12.038;2023-09-12T06:52:11;1013.8556303816897;;;22.1296875;91.56347168118444
61740;BME280;47645;45.288;12.038;2023-09-12T07:02:13;1013.8668365303486;;;22.318359375;90.72177316656668
61740;BME280;47645;45.288;12.038;2023-09-12T07:12:14;1014.0380261795966;;;22.62421875;89.8932557918947
61740;BME280;47645;45.288;12.038;2023-09-12T07:22:15;1014.1617268000441;;;23.05234375;87.95782922848137
61740;BME280;47645;45.288;12.038;2023-09-12T07:32:16;1014.3052723829018;;;23.4142578125;87.50712395843321
61740;BME280;47645;45.288;12.038;2023-09-12T07:42:21;1014.403673897266;;;23.6486328125;82.64159145457138
61740;BME280;47645;45.288;12.038;2023-09-12T07:52:19;1014.4683873764598;;;23.969921875;79.53108862664105
61740;BME280;47645;45.288;12.038;2023-09-12T08:02:21;1014.4513129885788;;;24.9537109375;92.51408693005543
61740;BME280;47645;45.288;12.038;2023-09-12T08:12:25;1014.4667941989944;;;25.096484375;80.97000183582044
61740;BME280;47645;45.288;12.038;2023-09-12T08:22:24;1014.5437472352303;;;25.825390625;89.8945266446098
61740;BME280;47645;45.288;12.038;2023-09-12T08:32:25;1014.4523107381533;;;26.0701171875;88.39091128868492
61740;BME280;47645;45.288;12.038;2023-09-12T08:42:29;1014.440188744395;;;26.0955078125;87.07534066155263
61740;BME280;47645;45.288;12.038;2023-09-12T08:52:28;1014.4598417624376;;;26.156640625;77.36859434137139
61740;BME280;47645;45.288;12.038;2023-09-12T09:06:24;1014.4417325596346;;;26.9162109375;76.2022774957851
61740;BME280;47645;45.288;12.038;2023-09-12T09:11:23;1014.4632040154403;;;27.4310546875;78.95266776202732
61740;BME280;47645;45.288;12.038;2023-09-12T09:21:28;1014.4722850980075;;;27.6298828125;70.74562473568888
61740;BME280;47645;45.288;12.038;2023-09-12T09:31:27;1014.5403187444796;;;28.1193359375;67.52182513007754
61740;BME280;47645;45.288;12.038;2023-09-12T09:41:28;1014.5012914498674;;;28.6392578125;64.88276511100408
61740;BME280;47645;45.288;12.038;2023-09-12T09:51:30;1014.5065098812166;;;29.398828125;62.21079924101352
61740;BME280;47645;45.288;12.038;2023-09-12T10:01:33;1014.4939696963293;;;29.9798828125;59.420956810599954
61740;BME280;47645;45.288;12.038;2023-09-12T10:11:35;1014.2535811858206;;;30.739453125;57.13033699460248
61740;BME280;47645;45.288;12.038;2023-09-12T10:21:35;1014.2591058219051;;;31.213671875;55.19081574780352
61740;BME280;47645;45.288;12.038;2023-09-12T10:31:37;1014.2393705021436;;;31.53984375;53.40106830792761
61740;BME280;47645;45.288;12.038;2023-09-12T10:41:40;1014.1874001593986;;;31.5654296875;49.593747053161735
61740;BME280;47645;45.288;12.038;2023-09-12T10:51:41;1014.0677497283257;;;32.3962890625;51.27169129060292
61740;BME280;47645;45.288;12.038;2023-09-12T11:01:44;1013.9395945584407;;;33.1916015625;45.895458362715544
61740;BME280;47645;45.288;12.038;2023-09-12T11:11:45;1013.9562192048056;;;33.5126953125;47.019183954904996
61740;BME280;47645;45.288;12.038;2023-09-12T11:21:48;1013.947298789;;;34.4251953125;44.31384179184784
61740;BME280;47645;45.288;12.038;2023-09-12T11:31:53;1013.9127039196289;;;34.3080078125;43.86975814808015
61740;BME280;47645;45.288;12.038;2023-09-12T11:41:50;1013.9975157361627;;;34.843359375;40.77835877569043
61740;BME280;47645;45.288;12.038;2023-09-12T11:51:53;1013.881088359744;;;35.0216796875;45.74946166823321
61740;BME280;47645;45.288;12.038;2023-09-12T12:01:54;1013.8307816481388;;;34.85859375;47.050391412692605
61740;BME280;47645;45.288;12.038;2023-09-12T12:11:57;1013.6749888271411;;;34.843359375;48.75981857454459
61740;BME280;47645;45.288;12.038;2023-09-12T12:21:57;1013.6197397408595;;;33.573828125;51.16539899834976
61740;BME280;47645;45.288;12.038;2023-09-12T12:32:00;1013.5879262536483;;;34.97578125;48.495464345056455
61740;BME280;47645;45.288;12.038;2023-09-12T12:42:01;1013.5300138965703;;;33.92578125;51.88567732829037
61740;BME280;47645;45.288;12.038;2023-09-12T12:52:04;1013.4485895188195;;;34.649609375;50.28817663983622
61740;BME280;47645;45.288;12.038;2023-09-12T13:02:05;1013.3064898445439;;;35.174609375;50.290961202256156
61740;BME280;47645;45.288;12.038;2023-09-12T13:12:09;1013.3094606873808;;;33.9359375;54.26764069472156
61740;BME280;47645;45.288;12.038;2023-09-12T13:22:10;1013.2645521186598;;;32.5697265625;58.67027358451403
61740;BME280;47645;45.288;12.038;2023-09-12T13:32:13;1013.1479666810259;;;34.8025390625;52.03439040119968
61740;BME280;47645;45.288;12.038;2023-09-12T13:42:15;1013.1945875716083;;;33.1966796875;55.89536652497732
61740;BME280;47645;45.288;12.038;2023-09-12T13:52:16;1013.077516488007;;;34.6087890625;52.37232833038626
61740;BME280;47645;45.288;12.038;2023-09-12T14:02:19;1013.0580231260038;;;32.8806640625;56.29689437858474
61740;BME280;47645;45.288;12.038;2023-09-12T14:12:20;1012.9581291611405;;;33.9869140625;54.61104291084485
61740;BME280;47645;45.288;12.038;2023-09-12T14:22:22;1012.908677909743;;;34.3845703125;52.72191497326004
61740;BME280;47645;45.288;12.038;2023-09-12T14:32:24;1012.8935875400134;;;34.155078125;51.371335668340016
61740;BME280;47645;45.288;12.038;2023-09-12T14:42:26;1012.9889437175625;;;33.8033203125;50.58014752650445
61740;BME280;47645;45.288;12.038;2023-09-12T14:52:29;1012.9938847444195;;;34.0939453125;51.01593312293865
61740;BME280;47645;45.288;12.038;2023-09-12T15:02:33;1012.9804958705927;;;33.7931640625;49.65993908632067
61740;BME280;47645;45.288;12.038;2023-09-12T15:12:32;1012.96012543346;;;33.8951171875;50.95938733452229
61740;BME280;47645;45.288;12.038;2023-09-12T15:22:34;1012.9596104178531;;;33.3751953125;51.37959056049515
61740;BME280;47645;45.288;12.038;2023-09-12T15:32:35;1012.9332226737762;;;33.252734375;49.78690977661179
61740;BME280;47645;45.288;12.038;2023-09-12T15:42:37;1012.8841200492052;;;33.0181640625;50.73080958083368
61740;BME280;47645;45.288;12.038;2023-09-12T15:52:39;1012.8020390929996;;;32.64609375;51.67063560429238
61740;BME280;47645;45.288;12.038;2023-09-12T16:02:42;1012.7900124659074;;;32.1923828125;52.97690587508238
61740;BME280;47645;45.288;12.038;2023-09-12T16:12:43;1012.9122705570194;;;31.835546875;54.610936571500666
61740;BME280;47645;45.288;12.038;2023-09-12T16:22:45;1012.8917602217058;;;31.116796875;55.920055331674064
61740;BME280;47645;45.288;12.038;2023-09-12T16:32:47;1012.9417787087881;;;30.6171875;57.067922098517556
61740;BME280;47645;45.288;12.038;2023-09-12T16:42:48;1012.9630276322695;;;30.204296875;58.706235660349755
61740;BME280;47645;45.288;12.038;2023-09-12T16:52:50;1012.8809991460793;;;29.9443359375;60.148517644369015
61740;BME280;47645;45.288;12.038;2023-09-12T17:02:52;1013.0039012898598;;;29.5517578125;61.64712058551367
61740;BME280;47645;45.288;12.038;2023-09-12T17:12:54;1013.056860340877;;;29.1794921875;63.11937035176769
61740;BME280;47645;45.288;12.038;2023-09-12T17:22:55;1012.9795927312667;;;28.5525390625;65.37772651201026
61740;BME280;47645;45.288;12.038;2023-09-12T17:33:00;1012.9937005313553;;;28.0376953125;67.99155018965413
61740;BME280;47645;45.288;12.038;2023-09-12T17:42:59;1013.0457610009846;;;27.5025390625;71.10693683344887
61740;BME280;47645;45.288;12.038;2023-09-12T17:53:01;1013.225396773525;;;27.293359375;72.02969020727423
61740;BME280;47645;45.288;12.038;2023-09-12T18:03:03;1013.4133678294975;;;26.737890625;74.59765975985411
61740;BME280;47645;45.288;12.038;2023-09-12T18:13:04;1013.3972752203673;;;26.6052734375;74.43219887114164
61740;BME280;47645;45.288;12.038;2023-09-12T18:23:05;1013.5152897778505;;;26.0802734375;76.85581729870208
61740;BME280;47645;45.288;12.038;2023-09-12T18:33:07;1013.6069607766999;;;26.228125;75.5960425678181
61740;BME280;47645;45.288;12.038;2023-09-12T18:43:09;1013.7313430381166;;;25.6927734375;77.9742149737517
61740;BME280;47645;45.288;12.038;2023-09-12T18:53:16;1013.9086145189546;;;25.1880859375;80.73827919563472
61740;BME280;47645;45.288;12.038;2023-09-12T19:03:13;1014.0548309620552;;;24.923046875;82.26174086170109
61740;BME280;47645;45.288;12.038;2023-09-12T19:13:14;1014.0858661477333;;;24.6171875;84.67171489065085
61740;BME280;47645;45.288;12.038;2023-09-12T19:23:15;1013.9862583352049;;;24.494921875;86.35728792115805
61740;BME280;47645;45.288;12.038;2023-09-12T19:33:16;1013.9424426813725;;;24.3521484375;83.63892671808186
61740;BME280;47645;45.288;12.038;2023-09-12T19:43:18;1014.0140031402079;;;24.2501953125;82.85626822556982
61740;BME280;47645;45.288;12.038;2023-09-12T19:53:19;1014.116119004116;;;24.087109375;85.39674839446415
61740;BME280;47645;45.288;12.038;2023-09-12T20:03:21;1014.1364780602585;;;23.862890625;86.01842337116045
61740;BME280;47645;45.288;12.038;2023-09-12T20:13:22;1014.0989406669977;;;23.77109375;92.13467398820062
61740;BME280;47645;45.288;12.038;2023-09-12T20:23:24;1014.2304103740207;;;23.551953125;94.68723510796194
61740;BME280;47645;45.288;12.038;2023-09-12T20:33:25;1014.2992312473971;;;23.38359375;96.1219602290409
61740;BME280;47645;45.288;12.038;2023-09-12T20:43:26;1014.3977808053809;;;23.2306640625;97.12200623997384
61740;BME280;47645;45.288;12.038;2023-09-12T20:53:28;1014.4640443279833;;;23.14921875;98.26768826664163
61740;BME280;47645;45.288;12.038;2023-09-12T21:03:31;1014.5455878457897;;;23.1185546875;99.69921156711654
61740;BME280;47645;45.288;12.038;2023-09-12T21:13:31;1014.5375948338113;;;23.07265625;100
61740;BME280;47645;45.288;12.038;2023-09-12T21:23:34;1014.649625203372;;;22.7873046875;100
61740;BME280;47645;45.288;12.038;2023-09-12T21:33:34;1014.5993922736334;;;22.93515625;100
61740;BME280;47645;45.288;12.038;2023-09-12T21:43:36;1014.6020211639737;;;22.940234375;100
61740;BME280;47645;45.288;12.038;2023-09-12T21:53:37;1014.6467891496108;;;22.95546875;100
61740;BME280;47645;45.288;12.038;2023-09-12T22:03:38;1014.6421588805194;;;22.930078125;100
61740;BME280;47645;45.288;12.038;2023-09-12T22:13:40;1014.6579212493625;;;22.756640625;100
61740;BME280;47645;45.288;12.038;2023-09-12T22:23:41;1014.573844847299;;;22.833203125;100
61740;BME280;47645;45.288;12.038;2023-09-12T22:33:43;1014.5760681458626;;;22.639453125;100
61740;BME280;47645;45.288;12.038;2023-09-12T22:43:44;1014.5441634974436;;;22.2724609375;100
61740;BME280;47645;45.288;12.038;2023-09-12T22:53:45;1014.5407668912474;;;22.1806640625;100
61740;BME280;47645;45.288;12.038;2023-09-12T23:03:47;1014.4960788374337;;;22.1501953125;100
61740;BME280;47645;45.288;12.038;2023-09-12T23:13:48;1014.5769966162244;;;21.997265625;100
61740;BME280;47645;45.288;12.038;2023-09-12T23:23:50;1014.6591962282033;;;22.2724609375;100
61740;BME280;47645;45.288;12.038;2023-09-12T23:33:52;1014.6199046586313;;;22.251953125;100
61740;BME280;47645;45.288;12.038;2023-09-12T23:43:52;1014.54756415376;;;22.0125;100
61740;BME280;47645;45.288;12.038;2023-09-12T23:53:55;1014.4185598947344;;;21.8798828125;100
